createdAt,value
2024-01-21T00:00:14.256Z,19.80
2024-01-21T00:02:41.481Z,19.70
2024-01-21T00:05:08.428Z,19.70
2024-01-21T00:07:35.287Z,19.70
2024-01-21T00:10:02.101Z,19.70
2024-01-21T00:12:28.885Z,19.70
2024-01-21T00:14:55.828Z,19.70
2024-01-21T00:17:22.513Z,19.70
2024-01-21T00:19:49.392Z,19.70
2024-01-21T00:22:16.183Z,19.70
2024-01-21T00:24:43.113Z,19.70
2024-01-21T00:27:10.071Z,19.70
2024-01-21T00:29:36.884Z,19.70
2024-01-21T00:32:03.935Z,19.70
2024-01-21T00:34:30.794Z,19.70
2024-01-21T00:36:57.523Z,19.60
2024-01-21T00:39:24.493Z,19.70
2024-01-21T00:42:01.101Z,19.60
2024-01-21T00:44:31.870Z,19.60
2024-01-21T00:46:58.733Z,19.60
2024-01-21T00:49:25.617Z,19.60
2024-01-21T00:51:53.321Z,19.50
2024-01-21T00:54:20.182Z,19.50
2024-01-21T00:56:47.233Z,19.50
2024-01-21T00:59:14.028Z,19.50
2024-01-21T01:01:41.158Z,19.50
2024-01-21T01:04:08.517Z,19.50
2024-01-21T01:06:35.500Z,19.50
2024-01-21T01:09:02.271Z,19.50
2024-01-21T01:11:29.145Z,19.50
2024-01-21T01:13:56.011Z,19.50
2024-01-21T01:16:23.692Z,19.50
2024-01-21T01:18:51.192Z,19.50
2024-01-21T01:21:18.217Z,19.50
2024-01-21T01:23:45.053Z,19.50
2024-01-21T01:26:11.810Z,19.50
2024-01-21T01:28:41.634Z,19.50
2024-01-21T01:31:09.186Z,19.50
2024-01-21T01:33:36.066Z,19.50
2024-01-21T01:36:02.921Z,19.50
2024-01-21T01:38:29.750Z,19.40
2024-01-21T01:40:56.479Z,19.50
2024-01-21T01:43:24.072Z,19.40
2024-01-21T01:45:51.707Z,19.40
2024-01-21T01:48:19.678Z,19.40
2024-01-21T01:50:47.194Z,19.40
2024-01-21T01:53:14.008Z,19.40
2024-01-21T01:55:40.885Z,19.40
2024-01-21T01:58:07.890Z,19.40
2024-01-21T02:00:34.889Z,19.40
2024-01-21T02:03:02.305Z,19.40
2024-01-21T02:05:29.054Z,19.40
2024-01-21T02:07:55.905Z,19.40
2024-01-21T02:10:22.681Z,19.40
2024-01-21T02:12:49.522Z,19.30
2024-01-21T02:15:16.470Z,19.30
2024-01-21T02:17:43.317Z,19.30
2024-01-21T02:20:10.869Z,19.30
2024-01-21T02:22:41.373Z,19.30
2024-01-21T02:25:08.918Z,19.30
2024-01-21T02:27:37.087Z,19.30
2024-01-21T02:30:04.689Z,19.30
2024-01-21T02:32:31.494Z,19.30
2024-01-21T02:34:58.235Z,19.30
2024-01-21T02:37:24.968Z,19.30
2024-01-21T02:39:51.883Z,19.30
2024-01-21T02:42:18.826Z,19.30
2024-01-21T02:44:45.673Z,19.30
2024-01-21T02:47:12.474Z,19.30
2024-01-21T02:49:39.424Z,19.30
2024-01-21T02:52:06.416Z,19.30
2024-01-21T02:54:33.137Z,19.30
2024-01-21T02:56:59.915Z,19.30
2024-01-21T02:59:26.914Z,19.20
2024-01-21T03:01:53.767Z,19.20
2024-01-21T03:04:20.582Z,19.20
2024-01-21T03:06:47.415Z,19.20
2024-01-21T03:09:14.265Z,19.20
2024-01-21T03:11:41.073Z,19.20
2024-01-21T03:14:08.765Z,19.20
2024-01-21T03:16:35.601Z,19.20
2024-01-21T03:19:02.477Z,19.20
2024-01-21T03:21:29.347Z,19.20
2024-01-21T03:23:56.095Z,19.20
2024-01-21T03:26:22.951Z,19.20
2024-01-21T03:28:49.704Z,19.20
2024-01-21T03:31:19.999Z,19.20
2024-01-21T03:33:47.326Z,19.20
2024-01-21T03:36:14.257Z,19.10
2024-01-21T03:38:41.133Z,19.20
2024-01-21T03:41:07.834Z,19.10
2024-01-21T03:43:34.610Z,19.10
2024-01-21T03:46:02.625Z,19.10
2024-01-21T03:48:29.531Z,19.10
2024-01-21T03:50:57.072Z,19.10
2024-01-21T03:53:23.812Z,19.10
2024-01-21T03:55:50.649Z,19.10
2024-01-21T03:58:17.431Z,19.10
2024-01-21T04:00:44.253Z,19.10
2024-01-21T04:03:11.930Z,19.10
2024-01-21T04:05:38.632Z,19.10
2024-01-21T04:08:07.077Z,19.10
2024-01-21T04:10:33.756Z,19.10
2024-01-21T04:13:00.636Z,19.10
2024-01-21T04:15:27.520Z,19.00
2024-01-21T04:17:55.493Z,19.10
2024-01-21T04:20:22.277Z,19.00
2024-01-21T04:22:49.049Z,19.00
2024-01-21T04:25:15.873Z,19.00
2024-01-21T04:27:42.654Z,19.00
2024-01-21T04:30:10.690Z,19.00
2024-01-21T04:32:37.592Z,19.00
2024-01-21T04:35:05.119Z,19.00
2024-01-21T04:37:32.038Z,19.00
2024-01-21T04:39:59.554Z,19.00
2024-01-21T04:42:27.249Z,19.00
2024-01-21T04:44:54.164Z,19.00
2024-01-21T04:47:20.959Z,19.00
2024-01-21T04:49:47.883Z,19.00
2024-01-21T04:52:15.117Z,19.00
2024-01-21T04:54:41.823Z,19.00
2024-01-21T04:57:08.709Z,19.00
2024-01-21T04:59:35.382Z,19.10
2024-01-21T05:02:02.092Z,19.00
2024-01-21T05:04:28.877Z,19.00
2024-01-21T05:06:55.782Z,19.00
2024-01-21T05:09:23.047Z,19.00
2024-01-21T05:11:49.773Z,19.00
2024-01-21T05:14:17.079Z,19.00
2024-01-21T05:16:43.796Z,19.00
2024-01-21T05:19:10.544Z,19.00
2024-01-21T05:21:37.516Z,19.00
2024-01-21T05:24:07.862Z,19.00
2024-01-21T05:26:43.684Z,19.00
2024-01-21T05:29:10.599Z,19.00
2024-01-21T05:31:37.309Z,18.90
2024-01-21T05:34:04.116Z,18.90
2024-01-21T05:36:30.973Z,18.90
2024-01-21T05:38:57.659Z,18.90
2024-01-21T05:41:24.397Z,18.90
2024-01-21T05:43:51.109Z,18.90
2024-01-21T05:46:17.830Z,18.90
2024-01-21T05:48:44.708Z,18.90
2024-01-21T05:51:11.629Z,18.90
2024-01-21T05:53:40.538Z,18.90
2024-01-21T05:56:07.965Z,18.90
2024-01-21T05:58:36.079Z,18.90
2024-01-21T06:01:03.187Z,18.90
2024-01-21T06:03:30.091Z,18.90
2024-01-21T06:05:57.861Z,18.90
2024-01-21T06:08:24.711Z,18.90
2024-01-21T06:10:51.498Z,18.90
2024-01-21T06:13:18.321Z,18.90
2024-01-21T06:15:45.111Z,18.90
2024-01-21T06:18:12.028Z,18.90
2024-01-21T06:20:38.844Z,18.80
2024-01-21T06:23:05.550Z,18.80
2024-01-21T06:25:33.249Z,18.80
2024-01-21T06:27:59.954Z,18.80
2024-01-21T06:30:26.715Z,18.80
2024-01-21T06:32:59.909Z,18.80
2024-01-21T06:35:30.192Z,18.80
2024-01-21T06:37:57.147Z,18.80
2024-01-21T06:40:24.118Z,18.80
2024-01-21T06:42:51.157Z,18.80
2024-01-21T06:45:18.136Z,18.80
2024-01-21T06:47:45.001Z,18.80
2024-01-21T06:50:12.393Z,18.80
2024-01-21T06:52:39.754Z,18.80
2024-01-21T06:55:07.741Z,18.80
2024-01-21T06:57:34.694Z,18.80
2024-01-21T07:00:02.993Z,18.80
2024-01-21T07:02:29.850Z,18.80
2024-01-21T07:04:56.557Z,18.80
2024-01-21T07:07:23.326Z,18.80
2024-01-21T07:09:50.185Z,18.80
2024-01-21T07:12:17.634Z,18.80
2024-01-21T07:14:44.688Z,18.80
2024-01-21T07:17:12.111Z,18.80
2024-01-21T07:19:38.981Z,18.70
2024-01-21T07:22:05.864Z,18.80
2024-01-21T07:24:32.785Z,18.70
2024-01-21T07:26:59.472Z,18.80
2024-01-21T07:29:26.251Z,18.80
2024-01-21T07:31:53.001Z,18.70
2024-01-21T07:34:20.090Z,18.80
2024-01-21T07:36:46.952Z,18.70
2024-01-21T07:39:13.849Z,18.70
2024-01-21T07:41:40.651Z,18.70
2024-01-21T07:44:07.363Z,18.70
2024-01-21T07:46:34.062Z,18.70
2024-01-21T07:49:00.848Z,18.70
2024-01-21T07:51:27.601Z,18.70
2024-01-21T07:53:54.512Z,18.70
2024-01-21T07:56:21.249Z,18.70
2024-01-21T07:58:48.003Z,18.70
2024-01-21T08:01:14.868Z,18.70
2024-01-21T08:03:41.817Z,18.70
2024-01-21T08:06:09.211Z,18.70
2024-01-21T08:08:36.481Z,18.70
2024-01-21T08:11:03.540Z,18.70
2024-01-21T08:13:30.459Z,18.70
2024-01-21T08:15:57.375Z,18.70
2024-01-21T08:18:25.278Z,18.70
2024-01-21T08:20:52.964Z,18.70
2024-01-21T08:23:20.704Z,18.70
2024-01-21T08:25:47.803Z,18.70
2024-01-21T08:28:14.847Z,18.70
2024-01-21T08:30:42.095Z,18.70
2024-01-21T08:33:09.526Z,18.70
2024-01-21T08:35:37.385Z,18.70
2024-01-21T08:38:04.435Z,18.70
2024-01-21T08:40:32.489Z,18.70
2024-01-21T08:42:59.477Z,18.70
2024-01-21T08:45:26.398Z,18.70
2024-01-21T08:47:53.251Z,18.70
2024-01-21T08:50:20.067Z,18.70
2024-01-21T08:52:46.802Z,18.70
2024-01-21T08:55:13.617Z,18.70
2024-01-21T08:57:40.458Z,18.70
2024-01-21T09:00:08.556Z,18.70
2024-01-21T09:02:36.116Z,18.70
2024-01-21T09:05:03.037Z,18.70
2024-01-21T09:07:29.820Z,18.70
2024-01-21T09:09:56.648Z,18.70
2024-01-21T09:12:23.608Z,18.70
2024-01-21T09:14:50.414Z,18.70
2024-01-21T09:17:17.139Z,18.70
2024-01-21T09:19:44.483Z,18.70
2024-01-21T09:22:14.143Z,18.70
2024-01-21T09:24:41.401Z,18.70
2024-01-21T09:27:08.645Z,18.70
2024-01-21T09:29:35.438Z,18.70
2024-01-21T09:32:02.180Z,18.70
2024-01-21T09:34:29.103Z,18.70
2024-01-21T09:36:56.328Z,18.60
2024-01-21T09:39:23.164Z,18.60
2024-01-21T09:41:51.995Z,18.70
2024-01-21T09:44:30.064Z,18.70
2024-01-21T09:47:00.896Z,18.70
2024-01-21T09:49:28.611Z,18.70
2024-01-21T09:51:56.221Z,18.80
2024-01-21T09:54:24.465Z,18.80
2024-01-21T09:56:51.232Z,18.80
2024-01-21T09:59:18.027Z,18.80
2024-01-21T10:01:45.199Z,18.80
2024-01-21T10:04:13.466Z,18.80
2024-01-21T10:06:40.930Z,18.80
2024-01-21T10:09:17.527Z,18.90
2024-01-21T10:11:49.607Z,18.90
2024-01-21T10:14:16.721Z,19.00
2024-01-21T10:16:44.440Z,19.00
2024-01-21T10:19:15.617Z,19.10
2024-01-21T10:21:43.114Z,19.10
2024-01-21T10:24:11.261Z,19.20
2024-01-21T10:26:38.941Z,19.20
2024-01-21T10:29:05.677Z,19.20
2024-01-21T10:31:37.524Z,19.20
2024-01-21T10:34:04.495Z,19.30
2024-01-21T10:36:34.694Z,19.30
2024-01-21T10:39:08.000Z,19.30
2024-01-21T10:41:35.802Z,19.40
2024-01-21T10:44:04.188Z,19.40
2024-01-21T10:46:36.684Z,19.40
2024-01-21T10:49:04.619Z,19.40
2024-01-21T10:51:31.828Z,19.40
2024-01-21T10:54:01.862Z,19.50
2024-01-21T10:56:28.697Z,19.50
2024-01-21T10:58:55.933Z,19.50
2024-01-21T11:01:25.568Z,19.50
2024-01-21T11:04:05.066Z,19.50
2024-01-21T11:06:32.770Z,19.50
2024-01-21T11:09:02.697Z,19.50
2024-01-21T11:11:29.391Z,19.50
2024-01-21T11:13:56.334Z,19.50
2024-01-21T11:16:31.966Z,19.60
2024-01-21T11:19:04.524Z,19.60
2024-01-21T11:21:32.199Z,19.60
2024-01-21T11:24:06.877Z,19.70
2024-01-21T11:26:37.364Z,19.70
2024-01-21T11:29:22.960Z,19.70
2024-01-21T11:31:54.132Z,19.70
2024-01-21T11:34:22.955Z,19.70
2024-01-21T11:36:50.167Z,19.70
2024-01-21T11:39:18.707Z,19.70
2024-01-21T11:41:45.708Z,19.70
2024-01-21T11:44:25.536Z,19.80
2024-01-21T11:46:58.929Z,19.80
2024-01-21T11:49:26.004Z,19.80
2024-01-21T11:51:54.216Z,19.90
2024-01-21T11:54:21.539Z,19.90
2024-01-21T11:56:48.805Z,19.90
2024-01-21T11:59:16.125Z,19.90
2024-01-21T12:01:43.690Z,19.90
2024-01-21T12:04:11.686Z,19.90
2024-01-21T12:06:45.999Z,19.90
2024-01-21T12:09:13.410Z,19.90
2024-01-21T12:11:41.294Z,19.90
2024-01-21T12:14:10.075Z,20.00
2024-01-21T12:16:37.671Z,20.00
2024-01-21T12:19:05.799Z,20.00
2024-01-21T12:21:33.462Z,20.00
2024-01-21T12:24:03.377Z,20.00
2024-01-21T12:26:30.666Z,20.00
2024-01-21T12:29:10.785Z,20.00
2024-01-21T12:31:39.030Z,20.00
2024-01-21T12:34:07.651Z,20.00
2024-01-21T12:36:35.504Z,20.00
2024-01-21T12:39:06.501Z,20.00
2024-01-21T12:41:34.257Z,20.00
2024-01-21T12:44:01.135Z,20.00
2024-01-21T12:46:28.218Z,20.00
2024-01-21T12:48:55.156Z,20.00
2024-01-21T12:51:24.791Z,20.00
2024-01-21T12:53:54.172Z,20.00
2024-01-21T12:56:21.806Z,20.00
2024-01-21T12:58:49.485Z,20.10
2024-01-21T13:01:19.714Z,20.10
2024-01-21T13:03:47.837Z,20.10
2024-01-21T13:06:14.867Z,20.10
2024-01-21T13:08:42.793Z,20.10
2024-01-21T13:11:09.604Z,20.10
2024-01-21T13:13:37.033Z,20.10
2024-01-21T13:16:05.671Z,20.10
2024-01-21T13:18:33.572Z,20.10
2024-01-21T13:21:00.833Z,20.10
2024-01-21T13:23:27.864Z,20.10
2024-01-21T13:25:55.039Z,20.10
2024-01-21T13:28:21.859Z,20.10
2024-01-21T13:30:50.972Z,20.10
2024-01-21T13:33:19.665Z,20.10
2024-01-21T13:35:48.185Z,20.10
2024-01-21T13:38:26.054Z,20.10
2024-01-21T13:40:56.004Z,20.10
2024-01-21T13:43:22.805Z,20.10
2024-01-21T13:45:50.090Z,20.10
2024-01-21T13:48:19.772Z,20.10
2024-01-21T13:50:48.157Z,20.10
2024-01-21T13:53:16.390Z,20.10
2024-01-21T13:55:44.460Z,20.10
2024-01-21T13:58:12.004Z,20.10
2024-01-21T14:00:39.060Z,20.10
2024-01-21T14:03:06.399Z,20.10
2024-01-21T14:05:33.376Z,20.10
2024-01-21T14:08:00.289Z,20.10
2024-01-21T14:10:27.712Z,20.10
2024-01-21T14:12:54.652Z,20.10
2024-01-21T14:15:21.559Z,20.10
2024-01-21T14:17:48.789Z,20.20
2024-01-21T14:20:15.812Z,20.20
2024-01-21T14:22:43.906Z,20.20
2024-01-21T14:25:40.954Z,20.20
2024-01-21T14:28:07.914Z,20.10
2024-01-21T14:30:36.306Z,20.10
2024-01-21T14:33:04.592Z,20.10
2024-01-21T14:35:32.537Z,20.10
2024-01-21T14:37:59.948Z,20.10
2024-01-21T14:40:27.808Z,20.10
2024-01-21T14:42:55.710Z,20.10
2024-01-21T14:45:23.031Z,20.10
2024-01-21T14:47:50.372Z,20.20
2024-01-21T14:50:17.419Z,20.20
2024-01-21T14:52:45.973Z,20.10
2024-01-21T14:55:13.416Z,20.10
2024-01-21T14:57:43.349Z,20.10
2024-01-21T15:00:12.299Z,20.10
2024-01-21T15:02:39.111Z,20.10
2024-01-21T15:05:06.306Z,20.10
2024-01-21T15:07:33.248Z,20.20
2024-01-21T15:10:00.323Z,20.10
2024-01-21T15:12:27.299Z,20.10
2024-01-21T15:15:00.711Z,20.10
2024-01-21T15:17:28.733Z,20.10
2024-01-21T15:19:56.900Z,20.10
2024-01-21T15:22:23.747Z,20.10
2024-01-21T15:24:50.503Z,20.20
2024-01-21T15:27:17.533Z,20.20
2024-01-21T15:29:44.230Z,20.20
2024-01-21T15:32:11.237Z,20.20
2024-01-21T15:34:38.151Z,20.10
2024-01-21T15:37:05.204Z,20.10
2024-01-21T15:39:31.984Z,20.10
2024-01-21T15:41:59.062Z,20.20
2024-01-21T15:44:27.996Z,20.20
2024-01-21T15:46:55.068Z,20.20
2024-01-21T15:49:22.056Z,20.20
2024-01-21T15:51:49.724Z,20.20
2024-01-21T15:54:17.214Z,20.20
2024-01-21T15:56:44.503Z,20.20
2024-01-21T15:59:11.607Z,20.20
2024-01-21T16:01:41.057Z,20.10
2024-01-21T16:04:08.074Z,20.10
2024-01-21T16:06:35.101Z,20.20
2024-01-21T16:09:03.660Z,20.10
2024-01-21T16:11:32.034Z,20.10
2024-01-21T16:13:59.306Z,20.20
2024-01-21T16:16:26.081Z,20.10
2024-01-21T16:18:53.170Z,20.10
2024-01-21T16:21:20.450Z,20.10
2024-01-21T16:23:47.718Z,20.10
2024-01-21T16:26:14.482Z,20.10
2024-01-21T16:28:41.229Z,20.10
2024-01-21T16:31:08.061Z,20.10
2024-01-21T16:33:35.149Z,20.10
2024-01-21T16:36:02.045Z,20.10
2024-01-21T16:38:31.695Z,20.10
2024-01-21T16:40:58.567Z,20.10
2024-01-21T16:43:25.376Z,20.10
2024-01-21T16:45:52.682Z,20.10
2024-01-21T16:48:20.694Z,20.10
2024-01-21T16:50:49.290Z,20.10
2024-01-21T16:53:24.237Z,20.10
2024-01-21T16:55:50.962Z,20.10
2024-01-21T16:58:17.931Z,20.10
2024-01-21T17:00:46.879Z,20.10
2024-01-21T17:03:17.103Z,20.10
2024-01-21T17:05:44.704Z,20.10
2024-01-21T17:08:11.768Z,20.10
2024-01-21T17:10:51.157Z,20.10
2024-01-21T17:13:18.066Z,20.10
2024-01-21T17:15:44.855Z,20.10
2024-01-21T17:18:31.040Z,20.10
2024-01-21T17:21:00.739Z,20.10
2024-01-21T17:23:27.524Z,20.10
2024-01-21T17:25:54.254Z,20.10
2024-01-21T17:28:21.481Z,20.10
2024-01-21T17:30:49.153Z,20.10
2024-01-21T17:33:16.218Z,20.10
2024-01-21T17:35:43.148Z,20.10
2024-01-21T17:38:10.034Z,20.10
2024-01-21T17:40:37.048Z,20.10
2024-01-21T17:43:03.900Z,20.00
2024-01-21T17:45:31.052Z,20.00
2024-01-21T17:47:57.924Z,20.00
2024-01-21T17:50:24.689Z,20.00
2024-01-21T17:52:51.433Z,20.00
2024-01-21T17:55:18.183Z,20.00
2024-01-21T17:57:45.081Z,20.00
2024-01-21T18:00:13.218Z,20.00
2024-01-21T18:02:40.176Z,20.00
2024-01-21T18:05:07.445Z,20.00
2024-01-21T18:07:34.647Z,20.00
2024-01-21T18:10:01.372Z,20.00
2024-01-21T18:12:28.210Z,20.00
2024-01-21T18:14:55.034Z,20.00
2024-01-21T18:17:21.807Z,20.00
2024-01-21T18:19:48.946Z,20.00
2024-01-21T18:22:18.986Z,20.00
2024-01-21T18:24:51.320Z,20.00
2024-01-21T18:27:18.916Z,19.90
2024-01-21T18:29:46.777Z,19.90
2024-01-21T18:32:14.509Z,19.90
2024-01-21T18:34:41.892Z,19.90
2024-01-21T18:37:09.014Z,19.90
2024-01-21T18:39:35.788Z,19.90
2024-01-21T18:42:02.639Z,19.90
2024-01-21T18:44:29.513Z,19.90
2024-01-21T18:46:56.509Z,19.90
2024-01-21T18:49:23.532Z,19.90
2024-01-21T18:51:50.520Z,19.90
2024-01-21T18:54:19.894Z,19.90
2024-01-21T18:56:47.640Z,19.90
2024-01-21T18:59:14.772Z,19.90
2024-01-21T19:01:41.621Z,19.90
2024-01-21T19:04:10.649Z,19.90
2024-01-21T19:06:38.320Z,19.90
2024-01-21T19:09:05.158Z,19.90
2024-01-21T19:11:32.666Z,19.90
2024-01-21T19:13:59.560Z,19.80
2024-01-21T19:16:26.231Z,19.80
2024-01-21T19:18:56.556Z,19.80
2024-01-21T19:21:27.773Z,19.70
2024-01-21T19:23:55.070Z,19.70
2024-01-21T19:26:22.153Z,19.70
2024-01-21T19:28:50.316Z,19.70
2024-01-21T19:31:17.543Z,19.70
2024-01-21T19:33:45.844Z,19.70
2024-01-21T19:36:12.819Z,19.70
2024-01-21T19:38:39.692Z,19.70
2024-01-21T19:41:06.625Z,19.70
2024-01-21T19:43:33.609Z,19.70
2024-01-21T19:46:00.648Z,19.70
2024-01-21T19:48:27.570Z,19.70
2024-01-21T19:50:54.387Z,19.70
2024-01-21T19:53:21.628Z,19.70
2024-01-21T19:55:49.846Z,19.70
2024-01-21T19:58:16.756Z,19.70
2024-01-21T20:00:43.600Z,19.70
2024-01-21T20:03:10.646Z,19.70
2024-01-21T20:05:37.568Z,19.60
2024-01-21T20:08:05.724Z,19.70
2024-01-21T20:10:32.580Z,19.70
2024-01-21T20:12:59.386Z,19.60
2024-01-21T20:15:26.190Z,19.60
2024-01-21T20:17:54.044Z,19.60
2024-01-21T20:20:20.940Z,19.60
2024-01-21T20:22:49.688Z,19.60
2024-01-21T20:25:16.747Z,19.60
2024-01-21T20:27:43.564Z,19.60
2024-01-21T20:30:15.885Z,19.50
2024-01-21T20:32:42.907Z,19.60
2024-01-21T20:35:10.468Z,19.70
2024-01-21T20:37:37.454Z,19.70
2024-01-21T20:40:06.434Z,19.70
2024-01-21T20:42:33.612Z,19.70
2024-01-21T20:45:02.137Z,19.70
2024-01-21T20:47:29.610Z,19.70
2024-01-21T20:49:56.449Z,19.60
2024-01-21T20:52:24.618Z,19.70
2024-01-21T20:54:51.548Z,19.60
2024-01-21T20:57:18.402Z,19.60
2024-01-21T20:59:45.483Z,19.60
2024-01-21T21:02:12.270Z,19.60
2024-01-21T21:04:39.116Z,19.70
2024-01-21T21:07:05.871Z,19.70
2024-01-21T21:09:32.701Z,19.70
2024-01-21T21:11:59.495Z,19.60
2024-01-21T21:14:26.330Z,19.70
2024-01-21T21:16:53.107Z,19.70
2024-01-21T21:19:20.628Z,19.70
2024-01-21T21:21:47.436Z,19.70
2024-01-21T21:24:14.338Z,19.70
2024-01-21T21:26:41.357Z,19.70
2024-01-21T21:29:08.702Z,19.70
2024-01-21T21:31:35.643Z,19.70
2024-01-21T21:34:02.777Z,19.70
2024-01-21T21:36:29.632Z,19.70
2024-01-21T21:38:56.458Z,19.70
2024-01-21T21:41:23.817Z,19.70
2024-01-21T21:43:50.960Z,19.70
2024-01-21T21:46:18.264Z,19.70
2024-01-21T21:48:45.384Z,19.70
2024-01-21T21:51:13.193Z,19.70
2024-01-21T21:53:40.500Z,19.70
2024-01-21T21:56:07.635Z,19.70
2024-01-21T21:58:35.531Z,19.70
2024-01-21T22:01:04.298Z,19.70
2024-01-21T22:03:33.233Z,19.70
2024-01-21T22:06:02.912Z,19.60
2024-01-21T22:08:31.282Z,19.60
2024-01-21T22:10:59.570Z,19.60
2024-01-21T22:13:26.361Z,19.60
2024-01-21T22:15:53.772Z,19.50
2024-01-21T22:18:20.872Z,19.60
2024-01-21T22:20:47.866Z,19.50
2024-01-21T22:23:14.853Z,19.50
2024-01-21T22:25:41.719Z,19.50
2024-01-21T22:28:08.658Z,19.50
2024-01-21T22:30:35.420Z,19.50
2024-01-21T22:33:02.328Z,19.50
2024-01-21T22:35:29.214Z,19.50
2024-01-21T22:37:56.033Z,19.50
2024-01-21T22:40:22.752Z,19.50
2024-01-21T22:42:49.617Z,19.50
2024-01-21T22:45:16.584Z,19.50
2024-01-21T22:47:43.508Z,19.50
2024-01-21T22:50:10.825Z,19.50
2024-01-21T22:52:37.711Z,19.50
2024-01-21T22:55:04.864Z,19.50
2024-01-21T22:57:31.817Z,19.50
2024-01-21T22:59:58.629Z,19.50
2024-01-21T23:02:25.393Z,19.50
2024-01-21T23:04:52.232Z,19.50
2024-01-21T23:07:19.022Z,19.50
2024-01-21T23:09:45.806Z,19.50
2024-01-21T23:12:12.662Z,19.50
2024-01-21T23:14:39.479Z,19.50
2024-01-21T23:17:07.168Z,19.50
2024-01-21T23:19:34.161Z,19.50
2024-01-21T23:22:01.040Z,19.50
2024-01-21T23:24:27.800Z,19.50
2024-01-21T23:26:55.081Z,19.50
2024-01-21T23:29:22.061Z,19.50
2024-01-21T23:31:48.961Z,19.50
2024-01-21T23:34:16.122Z,19.50
2024-01-21T23:36:44.645Z,19.50
2024-01-21T23:39:15.296Z,19.50
2024-01-21T23:41:42.087Z,19.50
2024-01-21T23:44:08.933Z,19.50
2024-01-21T23:46:35.789Z,19.50
2024-01-21T23:49:02.662Z,19.50
2024-01-21T23:51:29.474Z,19.40
2024-01-21T23:53:56.440Z,19.40
2024-01-21T23:56:24.347Z,19.40
2024-01-21T23:58:51.474Z,19.40
